sensor_id;sensor_type;location;lat;lon;timestamp;pressure;altitude;pressure_sealevel;temperature;humidity
25430;BME280;13360;48.152;-1.788;2024-03-08T00:02:34;100256.09;;;12.55;100.00
25430;BME280;13360;48.152;-1.788;2024-03-08T00:04:59;100228.69;;;12.05;100.00
25430;BME280;13360;48.152;-1.788;2024-03-08T00:07:24;100247.78;;;12.15;100.00
25430;BME280;13360;48.152;-1.788;2024-03-08T00:09:49;100262.41;;;12.07;100.00
25430;BME280;13360;48.152;-1.788;2024-03-08T00:12:15;100240.19;;;11.90;100.00
25430;BME280;13360;48.152;-1.788;2024-03-08T00:14:40;100267.72;;;11.95;100.00
25430;BME280;13360;48.152;-1.788;2024-03-08T00:17:05;100263.28;;;12.16;100.00
25430;BME280;13360;48.152;-1.788;2024-03-08T00:19:30;100262.78;;;12.14;100.00
25430;BME280;13360;48.152;-1.788;2024-03-08T00:21:56;100269.47;;;12.22;100.00
25430;BME280;13360;48.152;-1.788;2024-03-08T00:24:21;100270.41;;;12.09;100.00
25430;BME280;13360;48.152;-1.788;2024-03-08T00:26:50;100253.16;;;12.12;100.00
25430;BME280;13360;48.152;-1.788;2024-03-08T00:29:15;100245.84;;;12.16;100.00
25430;BME280;13360;48.152;-1.788;2024-03-08T00:31:40;100231.09;;;11.98;100.00
25430;BME280;13360;48.152;-1.788;2024-03-08T00:34:05;100262.22;;;12.35;100.00
25430;BME280;13360;48.152;-1.788;2024-03-08T00:36:31;100230.69;;;12.13;100.00
25430;BME280;13360;48.152;-1.788;2024-03-08T00:38:56;100238.19;;;12.13;100.00
25430;BME280;13360;48.152;-1.788;2024-03-08T00:41:22;100230.88;;;12.26;100.00
25430;BME280;13360;48.152;-1.788;2024-03-08T00:43:47;100228.75;;;12.23;100.00
25430;BME280;13360;48.152;-1.788;2024-03-08T00:46:12;100215.00;;;12.00;100.00
25430;BME280;13360;48.152;-1.788;2024-03-08T00:48:39;100216.84;;;12.13;100.00
25430;BME280;13360;48.152;-1.788;2024-03-08T00:51:08;100219.47;;;12.18;100.00
25430;BME280;13360;48.152;-1.788;2024-03-08T00:53:33;100219.53;;;11.96;100.00
25430;BME280;13360;48.152;-1.788;2024-03-08T00:55:58;100195.16;;;11.76;100.00
25430;BME280;13360;48.152;-1.788;2024-03-08T00:58:24;100246.66;;;12.16;100.00
25430;BME280;13360;48.152;-1.788;2024-03-08T01:00:49;100230.72;;;12.22;100.00
25430;BME280;13360;48.152;-1.788;2024-03-08T01:03:14;100220.13;;;12.15;100.00
25430;BME280;13360;48.152;-1.788;2024-03-08T01:05:39;100212.06;;;12.05;100.00
25430;BME280;13360;48.152;-1.788;2024-03-08T01:08:05;100218.00;;;12.12;100.00
25430;BME280;13360;48.152;-1.788;2024-03-08T01:10:30;100221.91;;;12.20;100.00
25430;BME280;13360;48.152;-1.788;2024-03-08T01:12:55;100199.13;;;12.23;100.00
25430;BME280;13360;48.152;-1.788;2024-03-08T01:15:22;100193.75;;;12.27;100.00
25430;BME280;13360;48.152;-1.788;2024-03-08T01:17:47;100185.50;;;12.35;100.00
25430;BME280;13360;48.152;-1.788;2024-03-08T01:20:12;100178.59;;;12.24;100.00
25430;BME280;13360;48.152;-1.788;2024-03-08T01:22:38;100181.88;;;12.26;100.00
25430;BME280;13360;48.152;-1.788;2024-03-08T01:25:03;100179.56;;;12.19;100.00
25430;BME280;13360;48.152;-1.788;2024-03-08T01:27:30;100169.13;;;12.08;100.00
25430;BME280;13360;48.152;-1.788;2024-03-08T01:29:55;100180.81;;;12.05;100.00
25430;BME280;13360;48.152;-1.788;2024-03-08T01:32:20;100165.53;;;11.76;100.00
25430;BME280;13360;48.152;-1.788;2024-03-08T01:34:48;100180.66;;;12.01;100.00
25430;BME280;13360;48.152;-1.788;2024-03-08T01:37:13;100162.81;;;11.85;100.00
25430;BME280;13360;48.152;-1.788;2024-03-08T01:39:39;100183.09;;;12.03;100.00
25430;BME280;13360;48.152;-1.788;2024-03-08T01:42:04;100180.31;;;11.94;100.00
25430;BME280;13360;48.152;-1.788;2024-03-08T01:44:30;100164.59;;;11.81;100.00
25430;BME280;13360;48.152;-1.788;2024-03-08T01:46:56;100166.22;;;11.82;100.00
25430;BME280;13360;48.152;-1.788;2024-03-08T01:49:21;100167.13;;;12.00;100.00
25430;BME280;13360;48.152;-1.788;2024-03-08T01:51:48;100167.28;;;12.03;100.00
25430;BME280;13360;48.152;-1.788;2024-03-08T01:54:13;100135.72;;;12.04;100.00
25430;BME280;13360;48.152;-1.788;2024-03-08T01:56:40;100139.50;;;12.08;100.00
25430;BME280;13360;48.152;-1.788;2024-03-08T01:59:05;100145.84;;;12.09;100.00
25430;BME280;13360;48.152;-1.788;2024-03-08T02:01:32;100151.91;;;11.80;100.00
25430;BME280;13360;48.152;-1.788;2024-03-08T02:03:58;100155.09;;;12.04;100.00
25430;BME280;13360;48.152;-1.788;2024-03-08T02:06:23;100143.09;;;12.09;100.00
25430;BME280;13360;48.152;-1.788;2024-03-08T02:08:48;100139.97;;;11.71;100.00
25430;BME280;13360;48.152;-1.788;2024-03-08T02:11:14;100149.50;;;11.87;100.00
25430;BME280;13360;48.152;-1.788;2024-03-08T02:13:39;100142.38;;;12.03;100.00
25430;BME280;13360;48.152;-1.788;2024-03-08T02:16:04;100127.31;;;11.78;100.00
25430;BME280;13360;48.152;-1.788;2024-03-08T02:18:33;100135.91;;;11.77;100.00
25430;BME280;13360;48.152;-1.788;2024-03-08T02:21:00;100162.88;;;11.94;100.00
25430;BME280;13360;48.152;-1.788;2024-03-08T02:23:25;100134.84;;;11.86;100.00
25430;BME280;13360;48.152;-1.788;2024-03-08T02:25:51;100139.09;;;11.93;100.00
25430;BME280;13360;48.152;-1.788;2024-03-08T02:28:16;100110.72;;;11.78;100.00
25430;BME280;13360;48.152;-1.788;2024-03-08T02:30:43;100117.47;;;11.95;100.00
25430;BME280;13360;48.152;-1.788;2024-03-08T02:33:09;100101.69;;;11.95;100.00
25430;BME280;13360;48.152;-1.788;2024-03-08T02:35:36;100085.25;;;11.99;100.00
25430;BME280;13360;48.152;-1.788;2024-03-08T02:38:03;100080.03;;;11.97;100.00
25430;BME280;13360;48.152;-1.788;2024-03-08T02:40:28;100080.84;;;12.06;100.00
25430;BME280;13360;48.152;-1.788;2024-03-08T02:42:54;100080.56;;;12.08;100.00
25430;BME280;13360;48.152;-1.788;2024-03-08T02:45:19;100056.53;;;11.86;100.00
25430;BME280;13360;48.152;-1.788;2024-03-08T02:47:45;100074.81;;;11.87;100.00
25430;BME280;13360;48.152;-1.788;2024-03-08T02:50:10;100075.25;;;11.80;100.00
25430;BME280;13360;48.152;-1.788;2024-03-08T02:52:36;100075.41;;;11.84;100.00
25430;BME280;13360;48.152;-1.788;2024-03-08T02:55:02;100051.44;;;11.71;100.00
25430;BME280;13360;48.152;-1.788;2024-03-08T02:57:27;100057.56;;;11.59;100.00
25430;BME280;13360;48.152;-1.788;2024-03-08T02:59:55;100069.41;;;11.82;100.00
25430;BME280;13360;48.152;-1.788;2024-03-08T03:02:21;100040.66;;;11.52;100.00
25430;BME280;13360;48.152;-1.788;2024-03-08T03:04:48;100056.00;;;11.75;100.00
25430;BME280;13360;48.152;-1.788;2024-03-08T03:07:13;100051.78;;;11.78;100.00
25430;BME280;13360;48.152;-1.788;2024-03-08T03:09:38;100044.78;;;11.72;100.00
25430;BME280;13360;48.152;-1.788;2024-03-08T03:12:04;100040.34;;;11.62;100.00
25430;BME280;13360;48.152;-1.788;2024-03-08T03:14:29;100042.13;;;11.58;100.00
25430;BME280;13360;48.152;-1.788;2024-03-08T03:16:54;100031.69;;;11.55;100.00
25430;BME280;13360;48.152;-1.788;2024-03-08T03:19:20;100013.09;;;11.38;100.00
25430;BME280;13360;48.152;-1.788;2024-03-08T03:21:45;100045.19;;;11.48;100.00
25430;BME280;13360;48.152;-1.788;2024-03-08T03:24:11;99998.84;;;11.53;100.00
25430;BME280;13360;48.152;-1.788;2024-03-08T03:26:37;100004.19;;;11.50;100.00
25430;BME280;13360;48.152;-1.788;2024-03-08T03:29:04;100022.53;;;11.37;100.00
25430;BME280;13360;48.152;-1.788;2024-03-08T03:31:30;100034.06;;;11.39;100.00
25430;BME280;13360;48.152;-1.788;2024-03-08T03:33:56;100024.78;;;11.35;100.00
25430;BME280;13360;48.152;-1.788;2024-03-08T03:36:26;100029.41;;;11.17;100.00
25430;BME280;13360;48.152;-1.788;2024-03-08T03:38:52;99992.16;;;11.06;100.00
25430;BME280;13360;48.152;-1.788;2024-03-08T03:41:29;100016.28;;;11.23;100.00
25430;BME280;13360;48.152;-1.788;2024-03-08T03:43:54;100002.19;;;11.42;100.00
25430;BME280;13360;48.152;-1.788;2024-03-08T03:46:19;99998.78;;;11.36;100.00
25430;BME280;13360;48.152;-1.788;2024-03-08T03:48:45;99982.41;;;11.09;100.00
25430;BME280;13360;48.152;-1.788;2024-03-08T03:51:11;99983.16;;;11.32;100.00
25430;BME280;13360;48.152;-1.788;2024-03-08T03:53:36;99987.22;;;11.34;100.00
25430;BME280;13360;48.152;-1.788;2024-03-08T03:56:02;99975.34;;;11.34;100.00
25430;BME280;13360;48.152;-1.788;2024-03-08T03:58:27;99958.53;;;11.21;100.00
25430;BME280;13360;48.152;-1.788;2024-03-08T04:00:52;99966.72;;;11.26;100.00
25430;BME280;13360;48.152;-1.788;2024-03-08T04:03:17;99966.22;;;11.24;100.00
25430;BME280;13360;48.152;-1.788;2024-03-08T04:05:43;99981.22;;;11.41;100.00
25430;BME280;13360;48.152;-1.788;2024-03-08T04:08:08;99953.34;;;11.20;100.00
25430;BME280;13360;48.152;-1.788;2024-03-08T04:10:33;99962.44;;;11.12;100.00
25430;BME280;13360;48.152;-1.788;2024-03-08T04:12:58;99973.47;;;11.12;100.00
25430;BME280;13360;48.152;-1.788;2024-03-08T04:15:24;99986.56;;;11.28;100.00
25430;BME280;13360;48.152;-1.788;2024-03-08T04:17:49;99977.13;;;11.29;100.00
25430;BME280;13360;48.152;-1.788;2024-03-08T04:20:14;99971.63;;;11.38;100.00
25430;BME280;13360;48.152;-1.788;2024-03-08T04:22:39;99954.38;;;11.41;100.00
25430;BME280;13360;48.152;-1.788;2024-03-08T04:25:05;99927.22;;;11.26;100.00
25430;BME280;13360;48.152;-1.788;2024-03-08T04:27:31;99930.88;;;11.13;100.00
25430;BME280;13360;48.152;-1.788;2024-03-08T04:29:57;99949.31;;;11.26;100.00
25430;BME280;13360;48.152;-1.788;2024-03-08T04:32:22;99942.44;;;11.15;100.00
25430;BME280;13360;48.152;-1.788;2024-03-08T04:34:48;99962.81;;;11.27;100.00
25430;BME280;13360;48.152;-1.788;2024-03-08T04:37:14;99942.66;;;11.27;100.00
25430;BME280;13360;48.152;-1.788;2024-03-08T04:39:39;99936.00;;;11.28;100.00
25430;BME280;13360;48.152;-1.788;2024-03-08T04:42:05;99937.94;;;11.27;100.00
25430;BME280;13360;48.152;-1.788;2024-03-08T04:44:34;99922.00;;;11.33;100.00
25430;BME280;13360;48.152;-1.788;2024-03-08T04:47:00;99905.19;;;11.12;100.00
25430;BME280;13360;48.152;-1.788;2024-03-08T04:49:25;99921.47;;;11.14;100.00
25430;BME280;13360;48.152;-1.788;2024-03-08T04:51:50;99920.97;;;11.12;100.00
25430;BME280;13360;48.152;-1.788;2024-03-08T04:54:15;99911.38;;;11.09;100.00
25430;BME280;13360;48.152;-1.788;2024-03-08T04:56:41;99924.25;;;11.22;100.00
25430;BME280;13360;48.152;-1.788;2024-03-08T04:59:06;99909.03;;;10.94;100.00
25430;BME280;13360;48.152;-1.788;2024-03-08T05:01:33;99924.66;;;10.98;100.00
25430;BME280;13360;48.152;-1.788;2024-03-08T05:03:58;99913.97;;;11.06;100.00
25430;BME280;13360;48.152;-1.788;2024-03-08T05:06:24;99931.47;;;10.92;100.00
25430;BME280;13360;48.152;-1.788;2024-03-08T05:08:49;99921.56;;;11.00;100.00
25430;BME280;13360;48.152;-1.788;2024-03-08T05:11:14;99915.63;;;11.15;100.00
25430;BME280;13360;48.152;-1.788;2024-03-08T05:13:40;99911.53;;;11.04;100.00
25430;BME280;13360;48.152;-1.788;2024-03-08T05:16:05;99885.97;;;10.98;100.00
25430;BME280;13360;48.152;-1.788;2024-03-08T05:18:32;99903.34;;;10.99;100.00
25430;BME280;13360;48.152;-1.788;2024-03-08T05:20:57;99900.03;;;10.80;100.00
25430;BME280;13360;48.152;-1.788;2024-03-08T05:23:22;99911.28;;;10.52;100.00
25430;BME280;13360;48.152;-1.788;2024-03-08T05:25:48;99917.16;;;10.59;100.00
25430;BME280;13360;48.152;-1.788;2024-03-08T05:28:13;99910.69;;;10.64;100.00
25430;BME280;13360;48.152;-1.788;2024-03-08T05:30:38;99912.75;;;10.89;100.00
25430;BME280;13360;48.152;-1.788;2024-03-08T05:33:04;99875.06;;;10.54;100.00
25430;BME280;13360;48.152;-1.788;2024-03-08T05:35:29;99908.81;;;10.82;100.00
25430;BME280;13360;48.152;-1.788;2024-03-08T05:37:54;99918.44;;;10.84;100.00
25430;BME280;13360;48.152;-1.788;2024-03-08T05:40:19;99909.34;;;10.84;100.00
25430;BME280;13360;48.152;-1.788;2024-03-08T05:42:45;99900.84;;;10.80;100.00
25430;BME280;13360;48.152;-1.788;2024-03-08T05:45:10;99902.41;;;10.64;100.00
25430;BME280;13360;48.152;-1.788;2024-03-08T05:47:36;99905.22;;;10.81;100.00
25430;BME280;13360;48.152;-1.788;2024-03-08T05:50:01;99890.75;;;10.76;100.00
25430;BME280;13360;48.152;-1.788;2024-03-08T05:52:26;99898.72;;;10.77;100.00
25430;BME280;13360;48.152;-1.788;2024-03-08T05:54:52;99900.53;;;10.82;100.00
25430;BME280;13360;48.152;-1.788;2024-03-08T05:57:17;99895.00;;;10.82;100.00
25430;BME280;13360;48.152;-1.788;2024-03-08T05:59:42;99888.16;;;10.79;100.00
25430;BME280;13360;48.152;-1.788;2024-03-08T06:02:08;99903.66;;;10.89;100.00
25430;BME280;13360;48.152;-1.788;2024-03-08T06:04:33;99891.75;;;10.80;100.00
25430;BME280;13360;48.152;-1.788;2024-03-08T06:06:58;99894.81;;;10.78;100.00
25430;BME280;13360;48.152;-1.788;2024-03-08T06:09:24;99895.81;;;10.82;100.00
25430;BME280;13360;48.152;-1.788;2024-03-08T06:11:49;99892.94;;;10.87;100.00
25430;BME280;13360;48.152;-1.788;2024-03-08T06:14:15;99904.78;;;10.88;100.00
25430;BME280;13360;48.152;-1.788;2024-03-08T06:16:43;99909.13;;;10.80;100.00
25430;BME280;13360;48.152;-1.788;2024-03-08T06:19:09;99883.16;;;10.50;100.00
25430;BME280;13360;48.152;-1.788;2024-03-08T06:21:34;99897.25;;;10.71;100.00
25430;BME280;13360;48.152;-1.788;2024-03-08T06:23:59;99885.63;;;10.91;100.00
25430;BME280;13360;48.152;-1.788;2024-03-08T06:26:24;99884.84;;;10.99;100.00
25430;BME280;13360;48.152;-1.788;2024-03-08T06:28:50;99876.75;;;10.63;100.00
25430;BME280;13360;48.152;-1.788;2024-03-08T06:31:16;99905.22;;;10.81;100.00
25430;BME280;13360;48.152;-1.788;2024-03-08T06:33:41;99902.69;;;10.85;100.00
25430;BME280;13360;48.152;-1.788;2024-03-08T06:36:06;99889.38;;;10.95;100.00
25430;BME280;13360;48.152;-1.788;2024-03-08T06:38:32;99884.66;;;10.96;100.00
25430;BME280;13360;48.152;-1.788;2024-03-08T06:40:57;99881.72;;;10.84;100.00
25430;BME280;13360;48.152;-1.788;2024-03-08T06:43:23;99895.78;;;10.74;100.00
25430;BME280;13360;48.152;-1.788;2024-03-08T06:45:50;99902.34;;;10.86;100.00
25430;BME280;13360;48.152;-1.788;2024-03-08T06:48:18;99901.34;;;10.82;100.00
25430;BME280;13360;48.152;-1.788;2024-03-08T06:50:44;99913.13;;;10.65;100.00
25430;BME280;13360;48.152;-1.788;2024-03-08T06:53:10;99894.91;;;10.33;100.00
25430;BME280;13360;48.152;-1.788;2024-03-08T06:55:35;99907.50;;;10.48;100.00
25430;BME280;13360;48.152;-1.788;2024-03-08T06:58:00;99901.28;;;10.65;100.00
25430;BME280;13360;48.152;-1.788;2024-03-08T07:00:26;99895.81;;;10.82;100.00
25430;BME280;13360;48.152;-1.788;2024-03-08T07:02:53;99894.81;;;10.78;100.00
25430;BME280;13360;48.152;-1.788;2024-03-08T07:05:19;99873.47;;;10.61;100.00
25430;BME280;13360;48.152;-1.788;2024-03-08T07:07:44;99909.28;;;10.75;100.00
25430;BME280;13360;48.152;-1.788;2024-03-08T07:10:09;99889.44;;;10.73;100.00
25430;BME280;13360;48.152;-1.788;2024-03-08T07:12:40;99899.72;;;10.81;100.00
25430;BME280;13360;48.152;-1.788;2024-03-08T07:15:05;99887.53;;;10.82;100.00
25430;BME280;13360;48.152;-1.788;2024-03-08T07:17:31;99881.81;;;10.70;100.00
25430;BME280;13360;48.152;-1.788;2024-03-08T07:19:59;99887.41;;;10.56;100.00
25430;BME280;13360;48.152;-1.788;2024-03-08T07:22:24;99898.06;;;10.72;100.00
25430;BME280;13360;48.152;-1.788;2024-03-08T07:24:49;99879.16;;;10.34;100.00
25430;BME280;13360;48.152;-1.788;2024-03-08T07:27:35;99881.66;;;10.75;100.00
25430;BME280;13360;48.152;-1.788;2024-03-08T07:30:01;99885.59;;;10.83;100.00
25430;BME280;13360;48.152;-1.788;2024-03-08T07:32:27;99882.00;;;10.82;100.00
25430;BME280;13360;48.152;-1.788;2024-03-08T07:34:54;99895.88;;;10.60;100.00
25430;BME280;13360;48.152;-1.788;2024-03-08T07:37:20;99888.97;;;10.71;100.00
25430;BME280;13360;48.152;-1.788;2024-03-08T07:39:46;99875.06;;;10.85;100.00
25430;BME280;13360;48.152;-1.788;2024-03-08T07:42:11;99887.75;;;10.94;100.00
25430;BME280;13360;48.152;-1.788;2024-03-08T07:44:37;99883.78;;;10.78;100.00
25430;BME280;13360;48.152;-1.788;2024-03-08T07:47:02;99881.72;;;10.84;100.00
25430;BME280;13360;48.152;-1.788;2024-03-08T07:49:28;99872.53;;;10.66;100.00
25430;BME280;13360;48.152;-1.788;2024-03-08T07:51:54;99877.72;;;10.67;100.00
25430;BME280;13360;48.152;-1.788;2024-03-08T07:54:19;99878.91;;;10.75;100.00
25430;BME280;13360;48.152;-1.788;2024-03-08T07:56:45;99872.59;;;10.83;100.00
25430;BME280;13360;48.152;-1.788;2024-03-08T07:59:10;99873.91;;;10.86;100.00
25430;BME280;13360;48.152;-1.788;2024-03-08T08:01:37;99852.81;;;10.59;100.00
25430;BME280;13360;48.152;-1.788;2024-03-08T08:04:02;99854.09;;;10.53;100.00
25430;BME280;13360;48.152;-1.788;2024-03-08T08:06:27;99851.63;;;10.82;100.00
25430;BME280;13360;48.152;-1.788;2024-03-08T08:08:53;99854.44;;;10.99;100.00
25430;BME280;13360;48.152;-1.788;2024-03-08T08:11:18;99832.25;;;10.74;100.00
25430;BME280;13360;48.152;-1.788;2024-03-08T08:13:45;99846.63;;;10.93;100.00
25430;BME280;13360;48.152;-1.788;2024-03-08T08:16:10;99811.31;;;10.73;100.00
25430;BME280;13360;48.152;-1.788;2024-03-08T08:18:35;99835.53;;;10.76;100.00
25430;BME280;13360;48.152;-1.788;2024-03-08T08:21:01;99829.34;;;10.79;100.00
25430;BME280;13360;48.152;-1.788;2024-03-08T08:23:27;99827.56;;;10.74;100.00
25430;BME280;13360;48.152;-1.788;2024-03-08T08:25:52;99834.28;;;10.99;100.00
25430;BME280;13360;48.152;-1.788;2024-03-08T08:28:17;99819.06;;;11.27;100.00
25430;BME280;13360;48.152;-1.788;2024-03-08T08:30:46;99809.97;;;11.27;100.00
25430;BME280;13360;48.152;-1.788;2024-03-08T08:33:12;99785.38;;;10.99;100.00
25430;BME280;13360;48.152;-1.788;2024-03-08T08:35:37;99811.56;;;11.19;100.00
25430;BME280;13360;48.152;-1.788;2024-03-08T08:38:03;99801.69;;;11.36;100.00
25430;BME280;13360;48.152;-1.788;2024-03-08T08:40:29;99776.81;;;11.27;100.00
25430;BME280;13360;48.152;-1.788;2024-03-08T08:42:55;99767.81;;;10.95;100.00
25430;BME280;13360;48.152;-1.788;2024-03-08T08:45:22;99801.81;;;11.22;100.00
25430;BME280;13360;48.152;-1.788;2024-03-08T08:47:48;99812.91;;;11.39;100.00
25430;BME280;13360;48.152;-1.788;2024-03-08T08:50:14;99801.84;;;11.48;100.00
25430;BME280;13360;48.152;-1.788;2024-03-08T08:52:41;99773.38;;;11.30;100.00
25430;BME280;13360;48.152;-1.788;2024-03-08T08:55:08;99786.72;;;11.45;100.00
25430;BME280;13360;48.152;-1.788;2024-03-08T08:57:34;99789.47;;;11.54;100.00
25430;BME280;13360;48.152;-1.788;2024-03-08T09:00:00;99773.22;;;11.35;100.00
25430;BME280;13360;48.152;-1.788;2024-03-08T09:02:25;99771.75;;;11.29;100.00
25430;BME280;13360;48.152;-1.788;2024-03-08T09:04:51;99772.25;;;11.31;100.00
25430;BME280;13360;48.152;-1.788;2024-03-08T09:07:16;99781.19;;;11.28;100.00
25430;BME280;13360;48.152;-1.788;2024-03-08T09:09:43;99774.81;;;11.19;100.00
25430;BME280;13360;48.152;-1.788;2024-03-08T09:12:09;99758.06;;;10.89;100.00
25430;BME280;13360;48.152;-1.788;2024-03-08T09:14:38;99780.34;;;11.10;100.00
25430;BME280;13360;48.152;-1.788;2024-03-08T09:17:03;99791.75;;;11.52;100.00
25430;BME280;13360;48.152;-1.788;2024-03-08T09:19:29;99775.50;;;11.50;100.00
25430;BME280;13360;48.152;-1.788;2024-03-08T09:21:54;99762.94;;;11.61;100.00
25430;BME280;13360;48.152;-1.788;2024-03-08T09:24:19;99749.94;;;11.62;100.00
25430;BME280;13360;48.152;-1.788;2024-03-08T09:26:44;99739.53;;;11.68;100.00
25430;BME280;13360;48.152;-1.788;2024-03-08T09:29:10;99759.78;;;12.06;100.00
25430;BME280;13360;48.152;-1.788;2024-03-08T09:31:36;99752.47;;;12.10;100.00
25430;BME280;13360;48.152;-1.788;2024-03-08T09:34:03;99708.72;;;11.95;100.00
25430;BME280;13360;48.152;-1.788;2024-03-08T09:36:28;99711.03;;;11.76;100.00
25430;BME280;13360;48.152;-1.788;2024-03-08T09:38:53;99733.50;;;11.92;100.00
25430;BME280;13360;48.152;-1.788;2024-03-08T09:41:18;99732.00;;;11.94;100.00
25430;BME280;13360;48.152;-1.788;2024-03-08T09:43:44;99744.66;;;12.12;100.00
25430;BME280;13360;48.152;-1.788;2024-03-08T09:46:10;99742.78;;;12.34;100.00
25430;BME280;13360;48.152;-1.788;2024-03-08T09:48:36;99724.47;;;12.50;100.00
25430;BME280;13360;48.152;-1.788;2024-03-08T09:51:02;99687.78;;;12.53;100.00
25430;BME280;13360;48.152;-1.788;2024-03-08T09:53:28;99705.72;;;12.47;100.00
25430;BME280;13360;48.152;-1.788;2024-03-08T09:55:53;99675.84;;;12.32;100.00
25430;BME280;13360;48.152;-1.788;2024-03-08T09:58:18;99700.56;;;12.66;100.00
25430;BME280;13360;48.152;-1.788;2024-03-08T10:01:07;99680.88;;;12.38;100.00
25430;BME280;13360;48.152;-1.788;2024-03-08T10:03:32;99704.41;;;12.53;100.00
25430;BME280;13360;48.152;-1.788;2024-03-08T10:05:58;99697.78;;;12.66;100.00
25430;BME280;13360;48.152;-1.788;2024-03-08T10:08:27;99695.25;;;12.32;100.00
25430;BME280;13360;48.152;-1.788;2024-03-08T10:10:54;99693.50;;;12.48;100.00
25430;BME280;13360;48.152;-1.788;2024-03-08T10:13:19;99687.50;;;12.46;100.00
25430;BME280;13360;48.152;-1.788;2024-03-08T10:15:45;99689.69;;;12.61;100.00
25430;BME280;13360;48.152;-1.788;2024-03-08T10:18:11;99690.38;;;12.79;100.00
25430;BME280;13360;48.152;-1.788;2024-03-08T10:20:36;99686.47;;;13.01;100.00
25430;BME280;13360;48.152;-1.788;2024-03-08T10:23:02;99659.31;;;12.94;100.00
25430;BME280;13360;48.152;-1.788;2024-03-08T10:25:28;99649.50;;;12.97;100.00
25430;BME280;13360;48.152;-1.788;2024-03-08T10:27:55;99681.47;;;12.94;100.00
25430;BME280;13360;48.152;-1.788;2024-03-08T10:30:20;99675.38;;;12.59;100.00
25430;BME280;13360;48.152;-1.788;2024-03-08T10:32:46;99674.56;;;12.79;100.00
25430;BME280;13360;48.152;-1.788;2024-03-08T10:35:12;99687.41;;;13.05;100.00
25430;BME280;13360;48.152;-1.788;2024-03-08T10:37:44;99632.66;;;12.60;100.00
25430;BME280;13360;48.152;-1.788;2024-03-08T10:40:12;99650.38;;;12.89;100.00
25430;BME280;13360;48.152;-1.788;2024-03-08T10:42:41;99662.25;;;13.10;100.00
25430;BME280;13360;48.152;-1.788;2024-03-08T10:48:04;99653.75;;;13.36;100.00
25430;BME280;13360;48.152;-1.788;2024-03-08T10:50:33;99616.50;;;13.04;100.00
25430;BME280;13360;48.152;-1.788;2024-03-08T10:52:59;99648.75;;;13.29;100.00
25430;BME280;13360;48.152;-1.788;2024-03-08T10:55:26;99620.28;;;13.20;100.00
25430;BME280;13360;48.152;-1.788;2024-03-08T10:57:53;99614.66;;;13.29;100.00
25430;BME280;13360;48.152;-1.788;2024-03-08T11:00:19;99632.25;;;13.33;100.00
25430;BME280;13360;48.152;-1.788;2024-03-08T11:02:51;99623.78;;;13.29;100.00
25430;BME280;13360;48.152;-1.788;2024-03-08T11:05:35;99613.97;;;13.11;100.00
25430;BME280;13360;48.152;-1.788;2024-03-08T11:08:03;99626.72;;;13.12;100.00
25430;BME280;13360;48.152;-1.788;2024-03-08T11:10:29;99628.16;;;13.30;100.00
25430;BME280;13360;48.152;-1.788;2024-03-08T11:12:54;99629.38;;;13.41;100.00
25430;BME280;13360;48.152;-1.788;2024-03-08T11:15:19;99619.78;;;13.51;100.00
25430;BME280;13360;48.152;-1.788;2024-03-08T11:17:45;99614.06;;;13.56;100.00
25430;BME280;13360;48.152;-1.788;2024-03-08T11:20:13;99585.88;;;13.21;100.00
25430;BME280;13360;48.152;-1.788;2024-03-08T11:22:41;99607.75;;;13.35;100.00
25430;BME280;13360;48.152;-1.788;2024-03-08T11:25:10;99624.56;;;13.63;100.00
25430;BME280;13360;48.152;-1.788;2024-03-08T11:28:06;99624.56;;;13.63;100.00
25430;BME280;13360;48.152;-1.788;2024-03-08T11:30:31;99607.22;;;13.54;100.00
25430;BME280;13360;48.152;-1.788;2024-03-08T11:32:56;99613.13;;;13.64;100.00
25430;BME280;13360;48.152;-1.788;2024-03-08T11:35:26;99596.03;;;13.62;100.00
25430;BME280;13360;48.152;-1.788;2024-03-08T11:37:51;99591.72;;;13.53;100.00
25430;BME280;13360;48.152;-1.788;2024-03-08T11:40:16;99575.06;;;13.53;100.00
25430;BME280;13360;48.152;-1.788;2024-03-08T11:42:45;99599.88;;;13.82;100.00
25430;BME280;13360;48.152;-1.788;2024-03-08T11:45:12;99584.53;;;13.52;100.00
25430;BME280;13360;48.152;-1.788;2024-03-08T11:47:38;99594.53;;;13.65;100.00
25430;BME280;13360;48.152;-1.788;2024-03-08T11:50:05;99576.03;;;13.57;100.00
25430;BME280;13360;48.152;-1.788;2024-03-08T11:52:35;99591.78;;;13.77;100.00
25430;BME280;13360;48.152;-1.788;2024-03-08T11:55:01;99593.81;;;13.56;100.00
25430;BME280;13360;48.152;-1.788;2024-03-08T11:57:26;99603.31;;;13.67;100.00
25430;BME280;13360;48.152;-1.788;2024-03-08T11:59:53;99591.16;;;13.71;100.00
25430;BME280;13360;48.152;-1.788;2024-03-08T12:02:19;99599.97;;;13.86;100.00
25430;BME280;13360;48.152;-1.788;2024-03-08T12:04:44;99584.13;;;13.74;100.00
25430;BME280;13360;48.152;-1.788;2024-03-08T12:07:11;99592.91;;;13.88;100.00
25430;BME280;13360;48.152;-1.788;2024-03-08T12:09:37;99564.22;;;13.72;100.00
25430;BME280;13360;48.152;-1.788;2024-03-08T12:12:02;99592.47;;;13.86;100.00
25430;BME280;13360;48.152;-1.788;2024-03-08T12:14:31;99569.44;;;13.61;100.00
25430;BME280;13360;48.152;-1.788;2024-03-08T12:16:57;99568.75;;;13.64;100.00
25430;BME280;13360;48.152;-1.788;2024-03-08T12:19:23;99563.78;;;13.70;100.00
25430;BME280;13360;48.152;-1.788;2024-03-08T12:21:48;99568.88;;;13.80;100.00
25430;BME280;13360;48.152;-1.788;2024-03-08T12:24:15;99559.13;;;13.74;100.00
25430;BME280;13360;48.152;-1.788;2024-03-08T12:26:41;99540.88;;;13.49;100.00
25430;BME280;13360;48.152;-1.788;2024-03-08T12:29:26;99546.75;;;13.47;100.00
25430;BME280;13360;48.152;-1.788;2024-03-08T12:31:54;99568.50;;;13.69;100.00
25430;BME280;13360;48.152;-1.788;2024-03-08T12:34:19;99561.00;;;13.82;100.00
25430;BME280;13360;48.152;-1.788;2024-03-08T12:36:45;99535.22;;;13.69;100.00